Time;durP1;ratioP1;P1;durP2;ratioP2;P2;SDS_P1;SDS_P2;PMS_P1;PMS_P2;Temp;Humidity;BMP_temperature;BMP_pressure;BME280_temperature;BME280_humidity;BME280_pressure;Samples;Min_cycle;Max_cycle;Signal;HPM_P1;HPM_P2
2021/09/21 00:00:53;;;;;;;5.22;4.05;;;20.20;60.10;;;;;;3025633;29;20052;-85
2021/09/21 00:02:26;;;;;;;5.38;4.15;;;20.20;60.10;;;;;;3026618;29;20549;-86
2021/09/21 00:03:57;;;;;;;4.93;4.30;;;20.10;60.00;;;;;;3025716;29;20052;-85
2021/09/21 00:05:29;;;;;;;5.72;4.05;;;20.20;60.70;;;;;;3026322;29;20052;-85
2021/09/21 00:07:01;;;;;;;4.68;4.20;;;20.20;60.60;;;;;;3026182;29;20057;-85
2021/09/21 00:08:33;;;;;;;4.75;4.18;;;20.10;59.80;;;;;;3033699;29;20056;-87
2021/09/21 00:10:06;;;;;;;4.97;4.15;;;20.10;59.90;;;;;;3038158;29;20056;-86
2021/09/21 00:11:37;;;;;;;4.93;4.40;;;20.10;59.90;;;;;;3037892;29;20100;-85
2021/09/21 00:13:09;;;;;;;4.60;4.18;;;20.10;59.90;;;;;;3029279;29;20053;-85
2021/09/21 00:14:41;;;;;;;4.57;3.95;;;20.10;59.80;;;;;;3025878;29;20497;-87
2021/09/21 00:16:13;;;;;;;4.70;3.83;;;20.10;59.90;;;;;;3025578;29;20059;-87
2021/09/21 00:17:46;;;;;;;4.57;3.95;;;20.10;59.80;;;;;;3026256;29;20057;-85
2021/09/21 00:19:18;;;;;;;5.75;3.75;;;20.10;59.90;;;;;;3021374;29;20600;-85
2021/09/21 00:20:50;;;;;;;4.72;4.22;;;20.10;59.80;;;;;;3026532;29;20053;-86
2021/09/21 00:22:21;;;;;;;4.30;3.90;;;20.10;59.70;;;;;;3025950;29;20046;-86
2021/09/21 00:23:53;;;;;;;4.40;4.00;;;20.10;59.70;;;;;;3025324;29;20045;-87
2021/09/21 00:25:25;;;;;;;4.45;3.97;;;20.10;59.70;;;;;;3025946;29;20048;-85
2021/09/21 00:26:57;;;;;;;4.35;3.60;;;20.10;59.70;;;;;;3019376;29;20548;-86
2021/09/21 00:28:29;;;;;;;4.30;3.88;;;20.10;59.70;;;;;;3025104;29;20081;-85
2021/09/21 00:30:01;;;;;;;5.10;4.10;;;20.10;59.80;;;;;;3025751;29;20116;-86
2021/09/21 00:31:37;;;;;;;4.53;3.95;;;20.00;59.80;;;;;;3027559;29;20136;-86
2021/09/21 00:33:16;;;;;;;4.18;3.78;;;20.00;60.00;;;;;;3028549;29;20057;-86
2021/09/21 00:34:48;;;;;;;4.28;3.80;;;20.10;59.90;;;;;;3027504;29;20097;-86
2021/09/21 00:36:22;;;;;;;4.30;3.78;;;20.20;59.50;;;;;;3028353;29;20142;-86
2021/09/21 00:37:54;;;;;;;4.22;3.83;;;20.30;59.10;;;;;;3028394;29;20087;-85
2021/09/21 00:39:25;;;;;;;4.05;3.63;;;20.30;58.70;;;;;;3027571;29;20051;-85
2021/09/21 00:40:56;;;;;;;4.15;3.75;;;20.30;58.90;;;;;;3034130;29;20055;-86
2021/09/21 00:42:29;;;;;;;4.43;4.03;;;20.30;59.00;;;;;;3039866;29;20086;-85
2021/09/21 00:44:01;;;;;;;5.20;3.85;;;20.20;59.10;;;;;;3039354;29;20048;-86
2021/09/21 00:45:33;;;;;;;4.25;3.78;;;20.20;59.10;;;;;;3038716;29;20048;-87
2021/09/21 00:47:05;;;;;;;4.37;3.83;;;20.30;58.90;;;;;;3039617;29;20052;-86
2021/09/21 00:48:38;;;;;;;3.88;3.33;;;20.30;58.70;;;;;;3039441;29;20052;-87
2021/09/21 00:50:13;;;;;;;4.82;3.88;;;20.40;58.70;;;;;;3033582;29;20053;-86
2021/09/21 00:51:45;;;;;;;4.22;3.75;;;20.30;58.60;;;;;;3020277;29;20052;-87
2021/09/21 00:53:16;;;;;;;4.47;3.60;;;20.40;58.70;;;;;;3028357;29;20069;-85
2021/09/21 00:54:48;;;;;;;5.60;4.18;;;20.40;58.60;;;;;;3027486;29;20428;-86
2021/09/21 00:56:20;;;;;;;4.43;3.83;;;20.40;58.50;;;;;;3028154;29;20124;-86
2021/09/21 00:57:52;;;;;;;5.43;3.80;;;20.40;58.40;;;;;;3028008;29;20468;-86
2021/09/21 00:59:24;;;;;;;4.35;3.80;;;20.40;58.30;;;;;;3027649;29;20298;-86
2021/09/21 01:00:56;;;;;;;4.85;3.78;;;20.40;58.30;;;;;;3027179;29;20144;-85
2021/09/21 01:02:27;;;;;;;4.05;3.65;;;20.50;58.20;;;;;;3028182;29;20136;-86
2021/09/21 01:04:05;;;;;;;5.03;3.80;;;20.40;58.20;;;;;;3027525;29;20468;-85
2021/09/21 01:05:37;;;;;;;4.00;3.53;;;20.50;58.20;;;;;;3027961;29;20112;-86
2021/09/21 01:07:08;;;;;;;3.83;3.45;;;20.40;58.10;;;;;;3027986;29;20057;-85
2021/09/21 01:08:41;;;;;;;5.43;3.58;;;20.50;58.20;;;;;;3036188;29;20465;-86
2021/09/21 01:10:14;;;;;;;4.18;3.78;;;20.50;58.00;;;;;;3031465;29;20068;-86
2021/09/21 01:11:47;;;;;;;;;;;20.60;57.90;;;;;;3028147;29;20071;-86
2021/09/21 01:13:18;;;;;;;3.95;3.50;;;20.60;57.70;;;;;;3038052;29;19923;-85
2021/09/21 01:14:50;;;;;;;3.90;3.47;;;20.60;57.80;;;;;;3038687;29;20476;-88
2021/09/21 01:16:22;;;;;;;4.90;3.85;;;20.60;57.80;;;;;;3038493;29;20052;-85
2021/09/21 01:17:56;;;;;;;5.72;3.45;;;20.60;57.90;;;;;;3039560;29;20091;-85
2021/09/21 01:19:31;;;;;;;3.70;3.28;;;20.60;57.90;;;;;;3038166;29;20420;-85
2021/09/21 01:21:04;;;;;;;3.47;3.17;;;20.60;57.70;;;;;;3022449;29;20045;-86
2021/09/21 01:22:36;;;;;;;3.95;3.33;;;20.60;57.80;;;;;;3025514;29;20053;-85
2021/09/21 01:24:08;;;;;;;3.90;3.60;;;20.60;57.70;;;;;;3027354;29;20063;-85
2021/09/21 01:25:40;;;;;;;4.18;3.60;;;20.70;57.50;;;;;;3020004;29;20497;-85
2021/09/21 01:27:11;;;;;;;4.47;3.67;;;20.70;57.50;;;;;;3020937;29;20573;-85
2021/09/21 01:28:43;;;;;;;4.82;3.58;;;20.70;57.30;;;;;;3015858;29;20306;-86
2021/09/21 01:30:15;;;;;;;3.80;3.40;;;20.70;57.30;;;;;;3015584;29;20117;-87
2021/09/21 01:31:46;;;;;;;4.47;3.77;;;20.80;57.20;;;;;;3016264;29;20065;-86
2021/09/21 01:33:20;;;;;;;4.35;3.45;;;20.70;57.20;;;;;;3016475;29;20302;-87
2021/09/21 01:34:51;;;;;;;3.65;3.20;;;20.70;57.20;;;;;;3015481;29;20053;-88
2021/09/21 01:36:24;;;;;;;3.95;3.50;;;20.70;57.10;;;;;;3016198;29;20117;-88
2021/09/21 01:37:57;;;;;;;3.85;3.15;;;20.70;57.10;;;;;;3016420;29;20056;-86
2021/09/21 01:39:29;;;;;;;4.15;3.70;;;20.80;57.00;;;;;;3015762;29;20065;-85
2021/09/21 01:41:03;;;;;;;3.85;3.38;;;20.70;57.20;;;;;;3016090;29;20470;-85
2021/09/21 01:42:35;;;;;;;4.65;3.30;;;20.70;57.30;;;;;;3016318;29;20461;-85
2021/09/21 01:44:07;;;;;;;3.47;3.17;;;20.70;57.10;;;;;;3015748;29;20053;-86
2021/09/21 01:45:39;;;;;;;3.92;3.45;;;20.70;57.10;;;;;;3015308;29;20061;-85
2021/09/21 01:47:11;;;;;;;3.60;3.30;;;20.70;57.10;;;;;;3016092;29;20061;-86
2021/09/21 01:48:43;;;;;;;4.13;3.35;;;20.70;57.00;;;;;;3016290;29;20053;-85
2021/09/21 01:50:29;;;;;;;3.95;3.17;;;20.80;57.10;;;;;;3027550;29;20053;-85
2021/09/21 01:52:06;;;;;;;3.72;3.40;;;20.70;57.10;;;;;;3027509;29;20077;-86
2021/09/21 01:53:43;;;;;;;3.65;3.00;;;20.70;57.10;;;;;;3027379;29;20045;-85
2021/09/21 01:55:22;;;;;;;4.78;3.55;;;20.70;57.10;;;;;;3027689;29;20057;-85
2021/09/21 02:00:31;;;;;;;3.35;3.05;;;20.70;57.10;;;;;;3026834;29;20049;-85
2021/09/21 02:02:05;;;;;;;3.55;3.25;;;20.70;57.00;;;;;;3027329;29;20056;-86
2021/09/21 02:03:37;;;;;;;3.50;3.20;;;20.80;57.00;;;;;;3027423;29;20049;-87
2021/09/21 02:05:08;;;;;;;3.65;3.25;;;20.70;57.20;;;;;;3027264;29;20057;-87
2021/09/21 02:06:41;;;;;;;4.10;3.30;;;20.70;57.00;;;;;;3027287;29;20069;-85
2021/09/21 02:08:12;;;;;;;;;;;20.70;57.00;;;;;;3032788;29;20058;-85
2021/09/21 02:09:45;;;;;;;3.38;2.95;;;20.80;56.90;;;;;;3038728;29;19927;-86
2021/09/21 02:11:17;;;;;;;3.78;3.33;;;20.80;57.00;;;;;;3039201;29;20052;-85
2021/09/21 02:12:49;;;;;;;3.70;3.20;;;20.70;57.20;;;;;;3032935;29;20114;-85
2021/09/21 02:14:23;;;;;;;3.58;3.22;;;20.70;57.10;;;;;;3026657;29;20045;-85
2021/09/21 02:15:54;;;;;;;3.90;2.92;;;20.80;57.00;;;;;;3026264;29;20072;-86
2021/09/21 02:17:26;;;;;;;3.53;3.20;;;20.80;57.10;;;;;;3027334;29;20516;-87
2021/09/21 02:18:58;;;;;;;3.75;3.35;;;20.80;57.20;;;;;;3024417;29;20161;-88
2021/09/21 02:20:29;;;;;;;4.05;3.38;;;20.70;57.20;;;;;;3016855;29;20057;-89
2021/09/21 02:22:01;;;;;;;3.20;2.90;;;20.70;57.20;;;;;;3021838;29;20081;-85
2021/09/21 02:23:33;;;;;;;3.42;3.00;;;20.80;57.20;;;;;;3015021;29;20065;-86
2021/09/21 02:25:07;;;;;;;2.97;2.67;;;20.80;57.20;;;;;;3020976;29;20052;-86
2021/09/21 02:26:39;;;;;;;3.80;3.17;;;20.80;57.10;;;;;;3018948;29;20072;-86
2021/09/21 02:28:10;;;;;;;3.75;3.33;;;20.80;57.10;;;;;;3026935;29;20049;-86
2021/09/21 02:29:42;;;;;;;3.35;3.03;;;20.80;56.90;;;;;;3026331;29;20340;-85
2021/09/21 02:31:14;;;;;;;3.65;3.17;;;20.80;56.90;;;;;;3026270;29;20512;-85
2021/09/21 02:32:49;;;;;;;3.67;3.22;;;20.80;56.80;;;;;;3027017;29;20108;-85
2021/09/21 02:34:24;;;;;;;4.55;3.20;;;20.80;56.90;;;;;;3026704;29;20053;-85
2021/09/21 02:35:56;;;;;;;5.45;3.25;;;20.80;57.00;;;;;;3026739;29;20501;-86
2021/09/21 02:37:29;;;;;;;4.10;3.45;;;20.80;57.10;;;;;;3027031;29;20053;-86
2021/09/21 02:39:01;;;;;;;6.10;3.30;;;20.80;57.00;;;;;;3026614;29;20523;-87
2021/09/21 02:40:34;;;;;;;3.67;2.97;;;20.80;57.00;;;;;;3027202;29;20440;-89
2021/09/21 02:42:06;;;;;;;3.25;2.90;;;20.80;57.00;;;;;;3026944;29;20496;-85
2021/09/21 02:43:38;;;;;;;2.90;2.70;;;20.90;57.00;;;;;;3026360;29;20101;-85
2021/09/21 02:45:09;;;;;;;5.40;3.33;;;20.90;56.90;;;;;;3025912;29;20131;-86
2021/09/21 02:46:41;;;;;;;4.75;3.25;;;20.90;56.80;;;;;;3027277;29;20049;-85
2021/09/21 02:48:13;;;;;;;3.58;3.25;;;20.90;56.70;;;;;;3026897;29;20053;-86
2021/09/21 02:49:45;;;;;;;4.30;3.20;;;20.90;56.60;;;;;;3021124;29;20049;-86
2021/09/21 02:51:17;;;;;;;4.47;3.10;;;21.00;56.40;;;;;;3019795;29;20049;-86
2021/09/21 02:52:48;;;;;;;3.92;3.45;;;21.00;56.40;;;;;;3014797;29;20531;-86
2021/09/21 02:54:23;;;;;;;3.65;3.25;;;21.00;56.40;;;;;;3014297;29;20053;-86
2021/09/21 02:55:57;;;;;;;3.50;3.20;;;21.00;56.40;;;;;;3015339;29;20109;-85
2021/09/21 02:57:28;;;;;;;3.67;3.10;;;21.00;56.50;;;;;;3015289;29;20462;-86
2021/09/21 02:59:00;;;;;;;3.90;3.40;;;20.90;56.50;;;;;;3014750;29;20491;-86
2021/09/21 03:00:32;;;;;;;3.45;3.10;;;20.90;56.50;;;;;;3020051;29;20049;-89
2021/09/21 03:02:04;;;;;;;3.65;3.20;;;20.90;56.60;;;;;;3026463;29;20509;-86
2021/09/21 03:03:43;;;;;;;3.40;3.10;;;20.90;56.60;;;;;;3026228;29;20105;-86
2021/09/21 03:05:18;;;;;;;3.35;3.03;;;20.90;56.40;;;;;;3026548;29;20056;-85
2021/09/21 03:06:53;;;;;;;4.13;3.40;;;20.90;56.20;;;;;;3026600;29;20076;-86
2021/09/21 05:15:44;;;;;;;;;;;22.40;53.50;;;;;;3036455;29;20431;-86
2021/09/21 05:17:16;;;;;;;5.97;2.70;;;22.50;53.60;;;;;;3038426;29;20209;-86
2021/09/21 05:18:47;;;;;;;8.45;2.60;;;22.50;53.60;;;;;;3035448;29;20045;-86
2021/09/21 05:20:19;;;;;;;6.18;2.50;;;22.60;53.50;;;;;;3031359;29;20109;-86
2021/09/21 05:21:51;;;;;;;6.25;2.70;;;22.60;53.50;;;;;;3026935;29;20309;-86
2021/09/21 05:23:23;;;;;;;3.85;2.47;;;22.70;53.40;;;;;;3027127;29;20064;-86
2021/09/21 05:24:54;;;;;;;7.43;2.53;;;22.80;53.20;;;;;;3032192;29;20412;-85
2021/09/21 05:26:26;;;;;;;6.78;2.35;;;22.80;53.20;;;;;;3035173;29;20096;-86
2021/09/21 05:27:58;;;;;;;4.05;2.50;;;22.80;53.20;;;;;;3038898;29;20048;-86
2021/09/21 05:29:29;;;;;;;3.00;2.33;;;22.90;53.10;;;;;;3038392;29;20048;-86
2021/09/21 05:31:02;;;;;;;4.75;2.35;;;22.90;53.10;;;;;;3026306;29;20065;-86
2021/09/21 05:32:34;;;;;;;5.40;2.40;;;22.90;53.10;;;;;;3027420;29;20493;-86
2021/09/21 05:34:06;;;;;;;5.53;2.47;;;22.90;53.10;;;;;;3027764;29;20041;-86
2021/09/21 05:35:38;;;;;;;4.05;2.58;;;22.90;53.20;;;;;;3027088;29;20060;-85
2021/09/21 05:37:10;;;;;;;4.53;2.40;;;23.00;53.20;;;;;;3034695;29;20048;-86
2021/09/21 05:38:41;;;;;;;5.18;2.63;;;23.00;53.20;;;;;;3038571;29;20527;-85
2021/09/21 05:40:16;;;;;;;5.32;2.22;;;23.00;53.30;;;;;;3038626;29;20754;-85
2021/09/21 05:41:48;;;;;;;4.50;2.60;;;23.00;53.30;;;;;;3038843;29;20091;-86
2021/09/21 05:43:19;;;;;;;3.88;2.30;;;22.90;53.50;;;;;;3038616;29;20048;-85
2021/09/21 05:44:51;;;;;;;4.38;2.50;;;22.90;53.40;;;;;;3038304;29;20480;-85
2021/09/21 05:46:24;;;;;;;3.50;2.20;;;22.90;53.50;;;;;;3037963;29;20059;-86
2021/09/21 05:47:56;;;;;;;4.45;2.28;;;22.90;53.60;;;;;;3038574;29;20126;-85
2021/09/21 05:49:28;;;;;;;5.65;2.10;;;22.90;53.60;;;;;;3038297;29;20126;-84
2021/09/21 05:50:59;;;;;;;3.40;2.10;;;22.90;53.70;;;;;;3038876;29;20566;-86
2021/09/21 05:52:31;;;;;;;3.00;2.20;;;22.90;53.70;;;;;;3038803;29;20432;-86
2021/09/21 05:54:03;;;;;;;2.65;2.17;;;22.90;53.80;;;;;;3038321;29;20076;-86
2021/09/21 05:55:35;;;;;;;2.90;2.10;;;22.90;53.90;;;;;;3038762;29;20059;-85
2021/09/21 05:57:06;;;;;;;3.05;2.10;;;22.80;53.80;;;;;;3038568;29;20515;-85
2021/09/21 05:58:38;;;;;;;3.67;2.10;;;22.80;54.00;;;;;;3038380;29;20060;-86
2021/09/21 06:00:11;;;;;;;3.42;2.25;;;22.80;54.20;;;;;;3037596;29;20097;-87
2021/09/21 06:01:44;;;;;;;;;;;22.70;54.30;;;;;;3029752;29;20098;-86
2021/09/21 06:03:16;;;;;;;7.80;2.60;;;22.70;54.40;;;;;;3037881;29;20314;-87
2021/09/21 06:04:47;;;;;;;7.45;2.38;;;22.70;54.60;;;;;;3037320;29;20052;-86
2021/09/21 06:06:19;;;;;;;6.43;2.63;;;22.70;54.80;;;;;;3038654;29;20392;-86
2021/09/21 06:07:52;;;;;;;7.57;2.88;;;22.60;54.90;;;;;;3038234;29;20056;-84
2021/09/21 06:09:23;;;;;;;15.82;2.65;;;22.60;55.10;;;;;;3036014;29;20571;-85
2021/09/21 06:10:55;;;;;;;8.60;2.35;;;22.60;55.20;;;;;;3036352;29;20096;-86
2021/09/21 06:12:27;;;;;;;7.03;2.53;;;22.50;55.40;;;;;;3038671;29;20433;-85
2021/09/21 06:13:59;;;;;;;7.77;2.37;;;22.60;55.50;;;;;;3037265;29;20049;-87
2021/09/21 06:15:31;;;;;;;13.88;2.78;;;22.60;55.60;;;;;;3036675;29;20045;-86
2021/09/21 06:17:04;;;;;;;7.35;2.55;;;22.60;55.50;;;;;;3038103;29;20045;-86
2021/09/21 06:18:36;;;;;;;9.10;2.40;;;22.50;55.60;;;;;;3037869;29;20127;-86
2021/09/21 06:20:10;;;;;;;6.22;2.40;;;22.50;55.60;;;;;;3038097;29;20064;-85
2021/09/21 06:21:41;;;;;;;8.60;2.67;;;22.50;55.60;;;;;;3037760;29;20095;-85
2021/09/21 06:23:14;;;;;;;7.90;2.60;;;22.50;55.50;;;;;;3025778;29;20052;-87
2021/09/21 06:24:45;;;;;;;6.95;3.13;;;22.60;55.40;;;;;;3035482;29;20052;-86
2021/09/21 06:26:17;;;;;;;9.32;2.80;;;22.60;55.40;;;;;;3037868;29;20563;-86
2021/09/21 06:27:49;;;;;;;4.25;2.30;;;22.60;55.40;;;;;;3037892;29;20108;-87
2021/09/21 06:29:21;;;;;;;5.63;2.72;;;22.50;55.40;;;;;;3037535;28;20496;-86
2021/09/21 06:30:52;;;;;;;9.85;2.58;;;22.60;55.50;;;;;;3037295;29;20053;-86
2021/09/21 06:32:26;;;;;;;3.90;2.22;;;22.50;55.40;;;;;;3037693;29;20114;-85
2021/09/21 06:33:58;;;;;;;6.00;2.58;;;22.50;55.50;;;;;;3037583;29;20132;-87
2021/09/21 06:35:30;;;;;;;4.50;2.53;;;22.60;55.50;;;;;;3037403;29;20059;-86
2021/09/21 06:37:01;;;;;;;5.80;2.40;;;22.60;55.20;;;;;;3038084;29;20060;-87
2021/09/21 06:38:34;;;;;;;5.95;2.50;;;22.70;55.20;;;;;;3037735;29;20504;-86
2021/09/21 06:40:07;;;;;;;6.72;2.42;;;22.70;55.20;;;;;;3038021;29;20056;-87
2021/09/21 06:41:39;;;;;;;8.70;2.75;;;22.70;55.20;;;;;;3037832;29;20060;-87
2021/09/21 06:43:10;;;;;;;8.77;2.50;;;22.70;55.10;;;;;;3038264;29;20053;-86
2021/09/21 06:44:42;;;;;;;3.50;2.30;;;22.70;55.00;;;;;;3036885;29;20060;-85
2021/09/21 06:46:14;;;;;;;7.30;2.65;;;22.70;55.00;;;;;;3036776;29;20163;-86
2021/09/21 06:47:47;;;;;;;5.57;2.50;;;22.70;55.10;;;;;;3028488;29;20449;-86
2021/09/21 06:49:18;;;;;;;2.85;2.30;;;22.70;55.20;;;;;;3037479;29;20048;-87
2021/09/21 06:50:50;;;;;;;6.32;2.50;;;22.70;55.10;;;;;;3040829;29;20055;-85
2021/09/21 06:52:22;;;;;;;7.47;2.90;;;22.70;55.20;;;;;;3040129;29;20052;-86
2021/09/21 06:53:54;;;;;;;6.15;2.67;;;22.70;55.30;;;;;;3039883;29;20104;-85
2021/09/21 06:55:26;;;;;;;10.98;2.95;;;22.70;55.00;;;;;;3040122;29;20488;-86
2021/09/21 06:56:57;;;;;;;10.13;2.35;;;22.70;54.80;;;;;;3038737;29;20044;-87
2021/09/21 06:58:29;;;;;;;6.43;2.42;;;22.70;54.80;;;;;;3037647;29;20167;-86
2021/09/21 07:00:01;;;;;;;15.73;3.10;;;22.80;54.90;;;;;;3033245;29;20048;-86
2021/09/21 07:01:33;;;;;;;11.07;2.83;;;22.80;55.10;;;;;;3030927;29;20057;-86
2021/09/21 07:03:07;;;;;;;12.90;3.25;;;22.70;55.20;;;;;;3040789;29;20060;-86
2021/09/21 07:04:38;;;;;;;10.70;3.00;;;22.70;55.20;;;;;;3040005;29;20471;-86
2021/09/21 07:06:10;;;;;;;9.82;3.58;;;22.70;55.20;;;;;;3040218;29;20052;-86
2021/09/21 07:07:45;;;;;;;13.90;3.53;;;22.70;55.30;;;;;;3039676;29;20546;-87
2021/09/21 07:09:17;;;;;;;11.88;3.20;;;22.70;55.40;;;;;;3039398;29;20076;-86
2021/09/21 07:10:49;;;;;;;11.10;3.85;;;22.70;55.50;;;;;;3037895;29;20484;-88
2021/09/21 07:12:20;;;;;;;13.73;3.83;;;22.70;55.60;;;;;;3038424;29;20048;-87
2021/09/21 07:13:52;;;;;;;11.18;3.42;;;22.70;55.50;;;;;;3037996;29;20431;-87
2021/09/21 07:15:24;;;;;;;17.55;3.78;;;22.70;55.20;;;;;;3037712;29;20075;-86
2021/09/21 07:16:55;;;;;;;6.20;3.50;;;22.60;54.80;;;;;;3039812;29;20053;-86
2021/09/21 07:18:29;;;;;;;13.82;3.90;;;22.60;54.60;;;;;;3039799;29;20045;-86
2021/09/21 07:20:00;;;;;;;13.55;3.47;;;22.60;54.30;;;;;;3039782;29;20040;-86
2021/09/21 07:21:32;;;;;;;10.73;3.28;;;22.60;54.50;;;;;;3040138;29;20112;-87
2021/09/21 07:23:04;;;;;;;11.88;3.50;;;22.60;54.60;;;;;;3030379;29;20056;-85
2021/09/21 07:24:35;;;;;;;15.48;3.63;;;22.60;54.80;;;;;;3028029;29;20053;-85
2021/09/21 07:26:08;;;;;;;10.80;3.40;;;22.60;54.80;;;;;;3028648;29;20154;-86
2021/09/21 07:27:40;;;;;;;13.93;3.28;;;22.70;54.70;;;;;;3035338;29;20496;-85
2021/09/21 07:29:12;;;;;;;12.45;3.20;;;22.70;54.70;;;;;;3039863;29;20555;-85
2021/09/21 07:30:44;;;;;;;11.30;3.10;;;22.70;54.70;;;;;;3039210;29;20814;-86
2021/09/21 07:32:15;;;;;;;12.07;3.20;;;22.70;54.80;;;;;;3040221;29;20139;-86
2021/09/21 07:33:49;;;;;;;10.35;3.03;;;22.70;54.80;;;;;;3039780;29;20055;-87
2021/09/21 07:35:20;;;;;;;11.02;3.20;;;22.70;54.80;;;;;;3039989;29;20063;-86
2021/09/21 07:36:52;;;;;;;12.70;3.40;;;22.70;54.90;;;;;;3039874;29;20049;-87
2021/09/21 07:38:24;;;;;;;7.50;3.22;;;22.80;55.00;;;;;;3040075;29;20091;-86
2021/09/21 07:39:56;;;;;;;11.20;3.42;;;22.80;55.00;;;;;;3040454;29;20057;-86
2021/09/21 07:41:28;;;;;;;12.55;3.83;;;22.80;55.00;;;;;;3042226;29;20084;-86
2021/09/21 07:43:00;;;;;;;10.75;3.30;;;22.80;55.10;;;;;;3041019;29;20492;-89
2021/09/21 07:44:32;;;;;;;7.95;3.35;;;22.80;55.20;;;;;;3039941;29;20059;-87
2021/09/21 07:46:04;;;;;;;10.50;3.60;;;22.80;55.10;;;;;;3038857;29;20513;-87
2021/09/21 07:47:36;;;;;;;10.50;3.30;;;22.90;55.10;;;;;;3040680;29;20424;-87
2021/09/21 07:49:09;;;;;;;10.75;3.55;;;22.90;55.10;;;;;;3038246;29;20049;-89
2021/09/21 07:50:40;;;;;;;9.45;3.30;;;22.90;54.90;;;;;;3037561;29;20131;-87
2021/09/21 07:52:13;;;;;;;7.95;2.88;;;22.80;55.50;;;;;;3037223;29;20576;-88
2021/09/21 07:53:45;;;;;;;;;;;22.90;55.00;;;;;;3040554;29;20128;-87
2021/09/21 07:55:17;;;;;;;9.85;3.17;;;22.80;54.90;;;;;;3039862;29;20360;-87
2021/09/21 07:56:48;;;;;;;14.27;3.25;;;22.80;54.90;;;;;;3029431;29;20057;-87
2021/09/21 07:58:20;;;;;;;14.00;3.60;;;22.80;54.90;;;;;;3029606;29;20052;-89
2021/09/21 07:59:52;;;;;;;12.00;3.30;;;22.80;55.30;;;;;;3029372;29;20420;-86
2021/09/21 08:01:24;;;;;;;13.73;3.75;;;22.80;55.20;;;;;;3040898;29;20567;-86
2021/09/21 08:02:55;;;;;;;9.45;3.10;;;22.90;54.90;;;;;;3042297;29;20092;-86
2021/09/21 08:04:28;;;;;;;10.30;3.58;;;22.90;55.00;;;;;;3041297;29;20401;-87
2021/09/21 08:06:00;;;;;;;9.93;3.10;;;22.90;54.90;;;;;;3041161;29;20053;-85
2021/09/21 08:07:32;;;;;;;15.15;3.72;;;23.00;54.70;;;;;;3039999;29;20080;-86
2021/09/21 08:09:04;;;;;;;14.13;3.70;;;22.90;54.70;;;;;;3052144;29;20511;-87
2021/09/21 08:10:38;;;;;;;13.95;3.15;;;22.90;54.70;;;;;;3052537;29;20139;-86
2021/09/21 08:12:09;;;;;;;8.45;3.13;;;22.90;54.80;;;;;;3052184;29;20103;-87
2021/09/21 08:13:41;;;;;;;9.07;3.30;;;22.80;54.30;;;;;;3051754;29;20109;-87
2021/09/21 08:15:13;;;;;;;14.48;3.50;;;22.90;54.10;;;;;;3051892;29;20362;-86
2021/09/21 08:16:44;;;;;;;9.85;3.22;;;22.80;53.70;;;;;;3041595;29;20053;-86
2021/09/21 08:18:16;;;;;;;6.30;3.35;;;22.80;53.80;;;;;;3029451;29;20052;-86
2021/09/21 08:19:49;;;;;;;9.80;3.30;;;22.80;53.80;;;;;;3037340;29;20089;-86
2021/09/21 08:21:21;;;;;;;8.02;2.88;;;22.70;53.90;;;;;;3040053;29;20100;-89
2021/09/21 08:22:53;;;;;;;9.75;2.67;;;22.80;53.60;;;;;;3039826;29;20183;-89
2021/09/21 08:24:25;;;;;;;24.47;3.63;;;22.80;53.60;;;;;;3039451;29;20048;-89
2021/09/21 08:25:56;;;;;;;13.95;3.50;;;22.80;53.40;;;;;;3039873;29;20292;-89
2021/09/21 08:27:28;;;;;;;13.07;3.05;;;22.80;53.20;;;;;;3040088;29;20061;-89
2021/09/21 08:29:01;;;;;;;8.05;3.00;;;22.80;53.50;;;;;;3039490;29;20501;-90
2021/09/21 08:30:33;;;;;;;6.38;2.70;;;22.80;53.50;;;;;;3038986;29;20104;-90
2021/09/21 08:32:05;;;;;;;7.57;2.55;;;22.80;53.70;;;;;;3039887;29;20056;-90
2021/09/21 08:33:40;;;;;;;6.13;2.97;;;22.80;53.60;;;;;;3039085;29;20068;-87
2021/09/21 08:35:14;;;;;;;10.98;3.10;;;22.80;53.40;;;;;;3039824;29;20048;-89
2021/09/21 08:36:45;;;;;;;7.25;2.70;;;22.80;53.30;;;;;;3039426;29;20143;-87
2021/09/21 08:38:17;;;;;;;7.63;2.80;;;22.80;53.40;;;;;;3040087;29;20052;-87
2021/09/21 08:39:49;;;;;;;5.45;2.88;;;22.80;53.20;;;;;;3039566;29;20060;-87
2021/09/21 08:41:21;;;;;;;5.43;2.95;;;22.80;53.00;;;;;;3040010;29;20056;-87
2021/09/21 08:42:52;;;;;;;5.38;2.40;;;22.80;53.00;;;;;;3039836;29;20515;-88
2021/09/21 08:44:24;;;;;;;3.90;2.47;;;22.80;53.10;;;;;;3039500;29;20052;-87
2021/09/21 08:45:56;;;;;;;4.68;2.58;;;22.80;53.20;;;;;;3039243;29;20048;-87
2021/09/21 08:47:28;;;;;;;10.65;2.88;;;22.80;53.20;;;;;;3038081;29;21609;-87
2021/09/21 08:48:59;;;;;;;12.13;2.72;;;22.80;53.30;;;;;;3034226;29;20139;-85
2021/09/21 08:50:32;;;;;;;6.57;2.40;;;22.80;53.40;;;;;;3028033;29;20421;-90
2021/09/21 08:52:04;;;;;;;8.52;2.90;;;22.80;53.40;;;;;;3027986;29;20511;-90
2021/09/21 08:53:36;;;;;;;10.63;2.50;;;22.80;53.30;;;;;;3030679;29;20061;-89
2021/09/21 08:55:09;;;;;;;7.97;3.08;;;22.80;53.20;;;;;;3039453;29;20053;-89
2021/09/21 08:56:43;;;;;;;7.95;3.72;;;22.80;53.60;;;;;;3040506;29;20167;-88
2021/09/21 08:58:15;;;;;;;15.30;3.92;;;22.80;54.00;;;;;;3040166;29;20063;-88
2021/09/21 08:59:51;;;;;;;16.45;3.63;;;22.90;54.70;;;;;;3040387;29;20451;-86
2021/09/21 09:01:23;;;;;;;8.98;3.38;;;23.20;54.00;;;;;;3040499;29;20290;-86
2021/09/21 09:03:03;;;;;;;13.63;3.50;;;23.30;53.60;;;;;;3041960;29;20049;-86
2021/09/21 09:04:35;;;;;;;12.43;3.92;;;23.30;53.10;;;;;;3040682;29;20056;-85
2021/09/21 09:06:08;;;;;;;11.18;3.25;;;23.40;53.00;;;;;;3040479;29;20048;-86
2021/09/21 09:07:48;;;;;;;14.88;3.63;;;23.40;52.90;;;;;;3040020;29;20056;-88
2021/09/21 09:09:21;;;;;;;10.15;3.40;;;23.40;52.80;;;;;;3051369;29;20044;-86
2021/09/21 09:10:54;;;;;;;20.92;3.72;;;23.30;52.90;;;;;;3051893;29;20048;-88
2021/09/21 09:12:29;;;;;;;20.63;3.60;;;23.20;52.90;;;;;;3051421;29;20059;-88
2021/09/21 09:44:06;;;;;;;;;;;23.20;58.00;;;;;;3048414;29;20075;-90
2021/09/21 09:45:39;;;;;;;30.45;4.78;;;23.10;58.50;;;;;;3050585;29;19955;-90
2021/09/21 09:47:11;;;;;;;30.02;4.80;;;23.10;58.60;;;;;;3050276;29;20499;-89
2021/09/21 09:48:43;;;;;;;27.98;4.03;;;23.10;58.70;;;;;;3039069;29;20056;-89
2021/09/21 09:50:16;;;;;;;35.75;4.53;;;23.00;58.80;;;;;;3039378;29;20140;-88
2021/09/21 09:51:48;;;;;;;30.45;4.07;;;23.00;58.80;;;;;;3032437;29;20062;-88
2021/09/21 09:53:23;;;;;;;36.28;4.65;;;23.00;58.70;;;;;;3035266;29;20057;-89
2021/09/21 09:54:55;;;;;;;18.30;3.97;;;23.00;58.70;;;;;;3027078;29;20432;-88
2021/09/21 09:56:29;;;;;;;19.80;3.95;;;23.00;58.70;;;;;;3033229;29;20515;-89
2021/09/21 09:58:01;;;;;;;24.98;3.97;;;22.90;58.80;;;;;;3039258;29;20056;-89
2021/09/21 09:59:36;;;;;;;33.90;4.78;;;22.80;58.70;;;;;;3038620;29;20060;-88
2021/09/21 10:01:08;;;;;;;16.77;3.88;;;22.80;59.50;;;;;;3038680;29;20128;-89
2021/09/21 10:02:40;;;;;;;27.83;4.35;;;22.80;59.00;;;;;;3038793;29;20128;-88
2021/09/21 10:04:12;;;;;;;19.98;3.50;;;22.80;58.80;;;;;;3038890;29;20053;-88
2021/09/21 10:05:44;;;;;;;18.63;3.55;;;22.80;58.90;;;;;;3038875;29;20044;-88
2021/09/21 10:07:16;;;;;;;29.85;4.65;;;22.70;58.80;;;;;;3039170;29;20055;-89
2021/09/21 10:08:48;;;;;;;17.00;3.95;;;22.70;58.80;;;;;;3048420;29;20052;-89
2021/09/21 10:10:20;;;;;;;19.42;3.83;;;22.70;58.80;;;;;;3051106;29;20517;-89
2021/09/21 10:11:52;;;;;;;21.83;3.92;;;22.70;58.80;;;;;;3051139;29;20055;-89
2021/09/21 10:13:24;;;;;;;14.40;3.53;;;22.60;58.70;;;;;;3051027;29;20048;-89
2021/09/21 10:14:57;;;;;;;14.98;3.90;;;22.60;58.70;;;;;;3050159;29;20086;-89
2021/09/21 10:16:29;;;;;;;19.70;3.72;;;22.60;58.50;;;;;;3033458;29;20052;-88
2021/09/21 10:18:01;;;;;;;18.58;3.67;;;22.60;58.60;;;;;;3028221;29;20041;-89
2021/09/21 10:19:35;;;;;;;16.63;3.55;;;22.50;58.60;;;;;;3027630;29;20117;-89
2021/09/21 10:21:07;;;;;;;14.25;3.53;;;22.60;59.10;;;;;;3028023;29;20061;-89
2021/09/21 10:22:39;;;;;;;15.00;4.38;;;22.50;58.40;;;;;;3027488;29;20086;-88
2021/09/21 10:24:11;;;;;;;21.42;4.10;;;22.50;58.30;;;;;;3027033;29;20045;-89
2021/09/21 10:25:44;;;;;;;11.40;3.50;;;22.50;58.30;;;;;;3027512;29;20657;-88
2021/09/21 10:27:18;;;;;;;15.05;3.38;;;22.40;58.30;;;;;;3027625;29;20109;-89
2021/09/21 10:28:51;;;;;;;19.73;3.50;;;22.40;58.30;;;;;;3026969;29;20108;-89
2021/09/21 10:30:29;;;;;;;13.20;3.53;;;22.40;58.30;;;;;;3029352;29;20167;-89
2021/09/21 10:32:01;;;;;;;10.93;2.92;;;22.40;58.10;;;;;;3039156;29;20154;-89
2021/09/21 10:33:33;;;;;;;5.43;3.03;;;22.40;58.20;;;;;;3038743;29;20147;-89
2021/09/21 10:35:13;;;;;;;9.95;3.15;;;22.30;58.20;;;;;;3038910;29;20048;-89
2021/09/21 10:36:47;;;;;;;12.30;3.40;;;22.30;58.20;;;;;;3039059;29;20397;-88
2021/09/21 10:38:19;;;;;;;13.70;3.03;;;22.30;58.10;;;;;;3039281;29;20056;-88
2021/09/21 10:40:00;;;;;;;9.80;2.92;;;22.40;58.10;;;;;;3038221;29;20408;-89
2021/09/21 10:41:32;;;;;;;8.07;3.30;;;22.40;58.00;;;;;;3039153;29;20055;-89